sensor_id;sensor_type;location;lat;lon;timestamp;P1;durP1;ratioP1;P2;durP2;ratioP2
19808;SDS011;48538;32.784;-96.802;2023-05-29T00:01:34;22.02;;;13.70;;
19808;SDS011;48538;32.784;-96.802;2023-05-29T00:04:01;24.90;;;14.15;;
19808;SDS011;48538;32.784;-96.802;2023-05-29T00:06:27;21.38;;;13.77;;
19808;SDS011;48538;32.784;-96.802;2023-05-29T00:08:54;22.33;;;13.88;;
19808;SDS011;48538;32.784;-96.802;2023-05-29T00:11:21;22.77;;;14.45;;
19808;SDS011;48538;32.784;-96.802;2023-05-29T00:13:48;28.13;;;14.93;;
19808;SDS011;48538;32.784;-96.802;2023-05-29T00:16:14;23.75;;;13.73;;
19808;SDS011;48538;32.784;-96.802;2023-05-29T00:18:42;26.95;;;17.02;;
19808;SDS011;48538;32.784;-96.802;2023-05-29T00:21:12;24.10;;;15.45;;
19808;SDS011;48538;32.784;-96.802;2023-05-29T00:23:39;24.25;;;14.93;;
19808;SDS011;48538;32.784;-96.802;2023-05-29T00:26:05;20.48;;;13.50;;
19808;SDS011;48538;32.784;-96.802;2023-05-29T00:28:32;20.35;;;13.52;;
19808;SDS011;48538;32.784;-96.802;2023-05-29T00:30:59;22.73;;;14.77;;
19808;SDS011;48538;32.784;-96.802;2023-05-29T00:33:26;26.13;;;15.02;;
19808;SDS011;48538;32.784;-96.802;2023-05-29T00:35:52;25.85;;;14.95;;
19808;SDS011;48538;32.784;-96.802;2023-05-29T00:38:19;22.27;;;14.13;;
19808;SDS011;48538;32.784;-96.802;2023-05-29T00:40:45;22.55;;;15.52;;
19808;SDS011;48538;32.784;-96.802;2023-05-29T00:43:11;23.25;;;16.17;;
19808;SDS011;48538;32.784;-96.802;2023-05-29T00:45:38;25.50;;;15.68;;
19808;SDS011;48538;32.784;-96.802;2023-05-29T00:48:04;22.02;;;14.32;;
19808;SDS011;48538;32.784;-96.802;2023-05-29T00:50:32;22.35;;;13.32;;
19808;SDS011;48538;32.784;-96.802;2023-05-29T00:52:59;20.27;;;13.77;;
19808;SDS011;48538;32.784;-96.802;2023-05-29T00:55:27;20.92;;;13.95;;
19808;SDS011;48538;32.784;-96.802;2023-05-29T00:57:55;24.42;;;13.73;;
19808;SDS011;48538;32.784;-96.802;2023-05-29T01:00:21;21.10;;;13.13;;
19808;SDS011;48538;32.784;-96.802;2023-05-29T01:02:48;20.85;;;13.35;;
19808;SDS011;48538;32.784;-96.802;2023-05-29T01:05:15;21.52;;;13.20;;
19808;SDS011;48538;32.784;-96.802;2023-05-29T01:07:42;24.05;;;13.60;;
19808;SDS011;48538;32.784;-96.802;2023-05-29T01:10:08;21.83;;;13.65;;
19808;SDS011;48538;32.784;-96.802;2023-05-29T01:12:48;19.75;;;13.38;;
19808;SDS011;48538;32.784;-96.802;2023-05-29T01:18:07;22.85;;;14.32;;
19808;SDS011;48538;32.784;-96.802;2023-05-29T01:20:40;22.50;;;13.98;;
19808;SDS011;48538;32.784;-96.802;2023-05-29T01:28:48;21.60;;;13.02;;
19808;SDS011;48538;32.784;-96.802;2023-05-29T01:31:20;24.10;;;14.77;;
19808;SDS011;48538;32.784;-96.802;2023-05-29T01:33:53;22.55;;;14.32;;
19808;SDS011;48538;32.784;-96.802;2023-05-29T01:36:24;21.40;;;13.35;;
19808;SDS011;48538;32.784;-96.802;2023-05-29T01:38:52;21.98;;;14.18;;
19808;SDS011;48538;32.784;-96.802;2023-05-29T01:41:20;22.40;;;13.68;;
19808;SDS011;48538;32.784;-96.802;2023-05-29T01:43:48;21.52;;;12.80;;
19808;SDS011;48538;32.784;-96.802;2023-05-29T01:46:15;22.90;;;13.90;;
19808;SDS011;48538;32.784;-96.802;2023-05-29T01:48:42;20.27;;;13.48;;
19808;SDS011;48538;32.784;-96.802;2023-05-29T01:51:10;25.13;;;14.50;;
19808;SDS011;48538;32.784;-96.802;2023-05-29T01:53:40;23.38;;;14.65;;
19808;SDS011;48538;32.784;-96.802;2023-05-29T01:56:08;22.13;;;14.63;;
19808;SDS011;48538;32.784;-96.802;2023-05-29T01:58:35;25.73;;;15.20;;
19808;SDS011;48538;32.784;-96.802;2023-05-29T02:01:03;23.23;;;14.18;;
19808;SDS011;48538;32.784;-96.802;2023-05-29T02:03:31;26.50;;;15.00;;
19808;SDS011;48538;32.784;-96.802;2023-05-29T02:05:58;24.13;;;15.05;;
19808;SDS011;48538;32.784;-96.802;2023-05-29T02:08:25;27.67;;;15.23;;
19808;SDS011;48538;32.784;-96.802;2023-05-29T02:10:52;24.00;;;14.70;;
19808;SDS011;48538;32.784;-96.802;2023-05-29T02:13:19;22.85;;;14.23;;
19808;SDS011;48538;32.784;-96.802;2023-05-29T02:15:46;23.88;;;13.98;;
19808;SDS011;48538;32.784;-96.802;2023-05-29T02:18:13;25.30;;;14.35;;
19808;SDS011;48538;32.784;-96.802;2023-05-29T02:20:42;22.05;;;13.82;;
19808;SDS011;48538;32.784;-96.802;2023-05-29T02:23:09;24.13;;;14.95;;
19808;SDS011;48538;32.784;-96.802;2023-05-29T02:25:35;25.70;;;14.23;;
19808;SDS011;48538;32.784;-96.802;2023-05-29T02:28:01;23.75;;;13.95;;
19808;SDS011;48538;32.784;-96.802;2023-05-29T02:30:29;25.30;;;15.93;;
19808;SDS011;48538;32.784;-96.802;2023-05-29T02:32:55;24.60;;;15.57;;
19808;SDS011;48538;32.784;-96.802;2023-05-29T02:35:22;25.30;;;14.93;;
19808;SDS011;48538;32.784;-96.802;2023-05-29T02:37:48;24.55;;;15.52;;
19808;SDS011;48538;32.784;-96.802;2023-05-29T02:40:16;26.25;;;15.82;;
19808;SDS011;48538;32.784;-96.802;2023-05-29T02:42:42;22.63;;;14.65;;
19808;SDS011;48538;32.784;-96.802;2023-05-29T02:45:09;24.85;;;13.68;;
19808;SDS011;48538;32.784;-96.802;2023-05-29T02:47:35;29.52;;;15.85;;
19808;SDS011;48538;32.784;-96.802;2023-05-29T02:50:02;27.00;;;16.75;;
19808;SDS011;48538;32.784;-96.802;2023-05-29T02:52:29;26.60;;;15.07;;
19808;SDS011;48538;32.784;-96.802;2023-05-29T02:54:57;26.10;;;15.15;;
19808;SDS011;48538;32.784;-96.802;2023-05-29T02:57:24;24.17;;;15.30;;
19808;SDS011;48538;32.784;-96.802;2023-05-29T02:59:51;22.42;;;15.23;;
19808;SDS011;48538;32.784;-96.802;2023-05-29T03:02:17;23.38;;;15.00;;
19808;SDS011;48538;32.784;-96.802;2023-05-29T03:04:44;23.88;;;14.50;;
19808;SDS011;48538;32.784;-96.802;2023-05-29T03:07:10;23.67;;;14.20;;
19808;SDS011;48538;32.784;-96.802;2023-05-29T03:09:37;26.75;;;15.40;;
19808;SDS011;48538;32.784;-96.802;2023-05-29T03:12:04;29.50;;;15.48;;
19808;SDS011;48538;32.784;-96.802;2023-05-29T03:14:30;25.58;;;15.93;;
19808;SDS011;48538;32.784;-96.802;2023-05-29T03:17:03;23.85;;;15.30;;
19808;SDS011;48538;32.784;-96.802;2023-05-29T03:19:30;26.75;;;14.00;;
19808;SDS011;48538;32.784;-96.802;2023-05-29T03:21:56;22.90;;;14.38;;
19808;SDS011;48538;32.784;-96.802;2023-05-29T03:24:23;28.90;;;14.85;;
19808;SDS011;48538;32.784;-96.802;2023-05-29T03:26:49;25.38;;;15.52;;
19808;SDS011;48538;32.784;-96.802;2023-05-29T03:29:16;25.60;;;14.48;;
19808;SDS011;48538;32.784;-96.802;2023-05-29T03:31:43;21.95;;;14.45;;
19808;SDS011;48538;32.784;-96.802;2023-05-29T03:34:09;23.80;;;14.02;;
19808;SDS011;48538;32.784;-96.802;2023-05-29T03:36:35;25.88;;;15.52;;
19808;SDS011;48538;32.784;-96.802;2023-05-29T03:39:05;23.73;;;14.88;;
19808;SDS011;48538;32.784;-96.802;2023-05-29T03:41:31;22.83;;;14.43;;
19808;SDS011;48538;32.784;-96.802;2023-05-29T03:43:58;23.20;;;14.75;;
19808;SDS011;48538;32.784;-96.802;2023-05-29T03:46:24;23.45;;;14.45;;
19808;SDS011;48538;32.784;-96.802;2023-05-29T03:48:50;22.13;;;13.07;;
19808;SDS011;48538;32.784;-96.802;2023-05-29T03:51:17;25.95;;;13.95;;
19808;SDS011;48538;32.784;-96.802;2023-05-29T03:53:43;22.63;;;14.70;;
19808;SDS011;48538;32.784;-96.802;2023-05-29T03:56:09;25.13;;;14.88;;
19808;SDS011;48538;32.784;-96.802;2023-05-29T03:58:35;22.83;;;14.48;;
19808;SDS011;48538;32.784;-96.802;2023-05-29T04:01:02;24.77;;;14.32;;
19808;SDS011;48538;32.784;-96.802;2023-05-29T04:03:29;22.58;;;14.20;;
19808;SDS011;48538;32.784;-96.802;2023-05-29T04:05:56;22.15;;;14.30;;
19808;SDS011;48538;32.784;-96.802;2023-05-29T04:08:22;22.77;;;14.27;;
19808;SDS011;48538;32.784;-96.802;2023-05-29T04:10:48;24.02;;;13.95;;
19808;SDS011;48538;32.784;-96.802;2023-05-29T04:13:19;21.80;;;13.80;;
19808;SDS011;48538;32.784;-96.802;2023-05-29T04:15:46;23.50;;;14.15;;
19808;SDS011;48538;32.784;-96.802;2023-05-29T04:18:12;21.23;;;14.45;;
19808;SDS011;48538;32.784;-96.802;2023-05-29T04:20:38;23.05;;;13.80;;
19808;SDS011;48538;32.784;-96.802;2023-05-29T04:23:05;23.58;;;13.55;;
19808;SDS011;48538;32.784;-96.802;2023-05-29T04:25:31;23.10;;;14.30;;
19808;SDS011;48538;32.784;-96.802;2023-05-29T04:27:57;23.80;;;13.55;;
19808;SDS011;48538;32.784;-96.802;2023-05-29T04:30:27;25.20;;;13.75;;
19808;SDS011;48538;32.784;-96.802;2023-05-29T04:32:53;24.15;;;15.02;;
19808;SDS011;48538;32.784;-96.802;2023-05-29T04:35:20;22.20;;;13.90;;
19808;SDS011;48538;32.784;-96.802;2023-05-29T04:37:50;25.15;;;14.57;;
19808;SDS011;48538;32.784;-96.802;2023-05-29T04:40:18;24.77;;;15.15;;
19808;SDS011;48538;32.784;-96.802;2023-05-29T04:42:45;21.90;;;13.75;;
19808;SDS011;48538;32.784;-96.802;2023-05-29T04:45:12;21.38;;;13.65;;
19808;SDS011;48538;32.784;-96.802;2023-05-29T04:47:38;23.05;;;13.98;;
19808;SDS011;48538;32.784;-96.802;2023-05-29T04:50:11;22.58;;;13.88;;
19808;SDS011;48538;32.784;-96.802;2023-05-29T04:52:38;20.67;;;13.88;;
19808;SDS011;48538;32.784;-96.802;2023-05-29T04:55:05;20.67;;;13.10;;
19808;SDS011;48538;32.784;-96.802;2023-05-29T04:57:31;19.60;;;12.75;;
19808;SDS011;48538;32.784;-96.802;2023-05-29T04:59:57;21.20;;;13.90;;
19808;SDS011;48538;32.784;-96.802;2023-05-29T05:02:24;21.77;;;13.95;;
19808;SDS011;48538;32.784;-96.802;2023-05-29T05:04:50;22.20;;;13.82;;
19808;SDS011;48538;32.784;-96.802;2023-05-29T05:07:16;25.73;;;14.63;;
19808;SDS011;48538;32.784;-96.802;2023-05-29T05:09:42;25.67;;;14.00;;
19808;SDS011;48538;32.784;-96.802;2023-05-29T05:12:09;23.83;;;13.77;;
19808;SDS011;48538;32.784;-96.802;2023-05-29T05:14:35;22.30;;;14.00;;
19808;SDS011;48538;32.784;-96.802;2023-05-29T05:17:01;20.23;;;13.20;;
19808;SDS011;48538;32.784;-96.802;2023-05-29T05:19:28;22.00;;;13.80;;
19808;SDS011;48538;32.784;-96.802;2023-05-29T05:21:54;24.77;;;14.35;;
19808;SDS011;48538;32.784;-96.802;2023-05-29T05:24:21;20.52;;;12.98;;
19808;SDS011;48538;32.784;-96.802;2023-05-29T05:26:47;22.08;;;13.77;;
19808;SDS011;48538;32.784;-96.802;2023-05-29T05:29:13;21.27;;;14.15;;
19808;SDS011;48538;32.784;-96.802;2023-05-29T05:31:39;21.90;;;13.75;;
19808;SDS011;48538;32.784;-96.802;2023-05-29T05:34:06;23.88;;;14.25;;
19808;SDS011;48538;32.784;-96.802;2023-05-29T05:36:32;23.00;;;14.70;;
19808;SDS011;48538;32.784;-96.802;2023-05-29T05:38:58;23.98;;;14.68;;
19808;SDS011;48538;32.784;-96.802;2023-05-29T05:41:25;21.92;;;13.65;;
19808;SDS011;48538;32.784;-96.802;2023-05-29T05:43:51;21.13;;;12.95;;
19808;SDS011;48538;32.784;-96.802;2023-05-29T05:46:18;24.33;;;14.10;;
19808;SDS011;48538;32.784;-96.802;2023-05-29T05:48:44;22.23;;;13.98;;
19808;SDS011;48538;32.784;-96.802;2023-05-29T05:51:11;21.88;;;13.40;;
19808;SDS011;48538;32.784;-96.802;2023-05-29T05:53:37;22.90;;;13.25;;
19808;SDS011;48538;32.784;-96.802;2023-05-29T05:56:04;22.08;;;14.05;;
19808;SDS011;48538;32.784;-96.802;2023-05-29T05:58:30;20.85;;;13.82;;
19808;SDS011;48538;32.784;-96.802;2023-05-29T06:00:57;21.08;;;13.20;;
19808;SDS011;48538;32.784;-96.802;2023-05-29T06:03:23;24.42;;;14.50;;
19808;SDS011;48538;32.784;-96.802;2023-05-29T06:05:49;23.50;;;13.88;;
19808;SDS011;48538;32.784;-96.802;2023-05-29T06:08:17;23.92;;;13.77;;
19808;SDS011;48538;32.784;-96.802;2023-05-29T06:10:43;21.90;;;14.40;;
19808;SDS011;48538;32.784;-96.802;2023-05-29T06:13:10;24.63;;;13.90;;
19808;SDS011;48538;32.784;-96.802;2023-05-29T06:15:37;23.05;;;13.48;;
19808;SDS011;48538;32.784;-96.802;2023-05-29T06:18:04;24.40;;;15.13;;
19808;SDS011;48538;32.784;-96.802;2023-05-29T06:20:30;22.92;;;13.57;;
19808;SDS011;48538;32.784;-96.802;2023-05-29T06:22:57;23.55;;;14.13;;
19808;SDS011;48538;32.784;-96.802;2023-05-29T06:25:23;28.77;;;14.05;;
19808;SDS011;48538;32.784;-96.802;2023-05-29T06:27:58;25.63;;;15.20;;
19808;SDS011;48538;32.784;-96.802;2023-05-29T06:30:25;25.13;;;14.75;;
19808;SDS011;48538;32.784;-96.802;2023-05-29T06:32:52;21.85;;;12.93;;
19808;SDS011;48538;32.784;-96.802;2023-05-29T06:35:18;25.70;;;14.82;;
19808;SDS011;48538;32.784;-96.802;2023-05-29T06:37:45;27.60;;;14.77;;
19808;SDS011;48538;32.784;-96.802;2023-05-29T06:40:12;20.75;;;14.00;;
19808;SDS011;48538;32.784;-96.802;2023-05-29T06:42:40;25.88;;;14.75;;
19808;SDS011;48538;32.784;-96.802;2023-05-29T06:45:10;24.63;;;14.40;;
19808;SDS011;48538;32.784;-96.802;2023-05-29T06:47:43;33.60;;;14.15;;
19808;SDS011;48538;32.784;-96.802;2023-05-29T06:50:09;29.83;;;15.07;;
19808;SDS011;48538;32.784;-96.802;2023-05-29T06:52:36;23.70;;;14.77;;
19808;SDS011;48538;32.784;-96.802;2023-05-29T06:55:02;22.00;;;13.57;;
19808;SDS011;48538;32.784;-96.802;2023-05-29T06:57:29;22.15;;;14.40;;
19808;SDS011;48538;32.784;-96.802;2023-05-29T06:59:55;24.48;;;15.13;;
19808;SDS011;48538;32.784;-96.802;2023-05-29T07:02:21;22.42;;;13.68;;
19808;SDS011;48538;32.784;-96.802;2023-05-29T07:04:48;21.90;;;14.30;;
19808;SDS011;48538;32.784;-96.802;2023-05-29T07:07:14;21.83;;;13.43;;
19808;SDS011;48538;32.784;-96.802;2023-05-29T07:09:41;20.40;;;13.50;;
19808;SDS011;48538;32.784;-96.802;2023-05-29T07:12:07;21.77;;;14.32;;
19808;SDS011;48538;32.784;-96.802;2023-05-29T07:14:33;19.83;;;13.05;;
19808;SDS011;48538;32.784;-96.802;2023-05-29T07:16:59;22.27;;;14.18;;
19808;SDS011;48538;32.784;-96.802;2023-05-29T07:19:26;22.02;;;13.60;;
19808;SDS011;48538;32.784;-96.802;2023-05-29T07:21:53;24.60;;;14.57;;
19808;SDS011;48538;32.784;-96.802;2023-05-29T07:24:20;25.35;;;14.52;;
19808;SDS011;48538;32.784;-96.802;2023-05-29T07:26:46;24.63;;;13.95;;
19808;SDS011;48538;32.784;-96.802;2023-05-29T07:29:12;23.30;;;14.23;;
19808;SDS011;48538;32.784;-96.802;2023-05-29T07:31:39;23.50;;;14.32;;
19808;SDS011;48538;32.784;-96.802;2023-05-29T07:34:06;24.27;;;14.52;;
19808;SDS011;48538;32.784;-96.802;2023-05-29T07:36:32;23.35;;;14.40;;
19808;SDS011;48538;32.784;-96.802;2023-05-29T07:38:58;24.80;;;14.00;;
19808;SDS011;48538;32.784;-96.802;2023-05-29T07:41:25;20.20;;;12.07;;
19808;SDS011;48538;32.784;-96.802;2023-05-29T07:43:52;21.63;;;13.65;;
19808;SDS011;48538;32.784;-96.802;2023-05-29T07:46:19;22.73;;;13.68;;
19808;SDS011;48538;32.784;-96.802;2023-05-29T07:48:45;22.80;;;14.57;;
19808;SDS011;48538;32.784;-96.802;2023-05-29T07:51:12;22.08;;;13.40;;
19808;SDS011;48538;32.784;-96.802;2023-05-29T07:53:38;23.13;;;13.25;;
19808;SDS011;48538;32.784;-96.802;2023-05-29T07:56:05;20.58;;;13.25;;
19808;SDS011;48538;32.784;-96.802;2023-05-29T07:58:31;23.88;;;14.07;;
19808;SDS011;48538;32.784;-96.802;2023-05-29T08:00:58;21.85;;;13.00;;
19808;SDS011;48538;32.784;-96.802;2023-05-29T08:03:24;22.00;;;13.75;;
19808;SDS011;48538;32.784;-96.802;2023-05-29T08:05:51;22.83;;;13.27;;
19808;SDS011;48538;32.784;-96.802;2023-05-29T08:08:17;23.00;;;12.63;;
19808;SDS011;48538;32.784;-96.802;2023-05-29T08:10:44;18.95;;;12.07;;
19808;SDS011;48538;32.784;-96.802;2023-05-29T08:13:11;21.60;;;12.88;;
19808;SDS011;48538;32.784;-96.802;2023-05-29T08:15:37;23.35;;;13.88;;
19808;SDS011;48538;32.784;-96.802;2023-05-29T08:18:03;21.60;;;13.65;;
19808;SDS011;48538;32.784;-96.802;2023-05-29T08:20:30;23.23;;;13.68;;
19808;SDS011;48538;32.784;-96.802;2023-05-29T08:22:56;23.42;;;14.02;;
19808;SDS011;48538;32.784;-96.802;2023-05-29T08:25:22;18.63;;;12.93;;
19808;SDS011;48538;32.784;-96.802;2023-05-29T08:27:49;23.50;;;14.07;;
19808;SDS011;48538;32.784;-96.802;2023-05-29T08:30:15;20.83;;;12.63;;
19808;SDS011;48538;32.784;-96.802;2023-05-29T08:32:42;23.77;;;12.80;;
19808;SDS011;48538;32.784;-96.802;2023-05-29T08:35:08;23.95;;;13.15;;
19808;SDS011;48538;32.784;-96.802;2023-05-29T08:37:34;21.13;;;13.05;;
19808;SDS011;48538;32.784;-96.802;2023-05-29T08:40:01;21.92;;;12.77;;
19808;SDS011;48538;32.784;-96.802;2023-05-29T08:42:33;21.92;;;12.75;;
19808;SDS011;48538;32.784;-96.802;2023-05-29T08:45:05;19.98;;;12.98;;
19808;SDS011;48538;32.784;-96.802;2023-05-29T08:47:35;20.25;;;13.40;;
19808;SDS011;48538;32.784;-96.802;2023-05-29T08:50:05;22.80;;;13.85;;
19808;SDS011;48538;32.784;-96.802;2023-05-29T08:52:33;22.10;;;13.38;;
19808;SDS011;48538;32.784;-96.802;2023-05-29T08:55:03;22.08;;;13.50;;
19808;SDS011;48538;32.784;-96.802;2023-05-29T08:57:30;23.25;;;14.13;;
19808;SDS011;48538;32.784;-96.802;2023-05-29T08:59:57;21.77;;;13.45;;
19808;SDS011;48538;32.784;-96.802;2023-05-29T09:02:24;21.80;;;13.43;;
19808;SDS011;48538;32.784;-96.802;2023-05-29T09:04:52;21.58;;;13.32;;
19808;SDS011;48538;32.784;-96.802;2023-05-29T09:07:19;21.70;;;13.45;;
19808;SDS011;48538;32.784;-96.802;2023-05-29T09:09:46;23.13;;;13.60;;
19808;SDS011;48538;32.784;-96.802;2023-05-29T09:12:14;22.17;;;13.50;;
19808;SDS011;48538;32.784;-96.802;2023-05-29T09:14:42;21.50;;;13.65;;
19808;SDS011;48538;32.784;-96.802;2023-05-29T09:17:10;24.20;;;12.90;;
19808;SDS011;48538;32.784;-96.802;2023-05-29T09:19:37;25.05;;;13.93;;
19808;SDS011;48538;32.784;-96.802;2023-05-29T09:22:06;21.67;;;11.73;;
19808;SDS011;48538;32.784;-96.802;2023-05-29T09:24:42;21.02;;;12.93;;
19808;SDS011;48538;32.784;-96.802;2023-05-29T09:27:12;20.95;;;12.77;;
19808;SDS011;48538;32.784;-96.802;2023-05-29T09:29:39;23.08;;;13.13;;
19808;SDS011;48538;32.784;-96.802;2023-05-29T09:32:25;22.40;;;13.27;;
19808;SDS011;48538;32.784;-96.802;2023-05-29T09:34:59;18.35;;;11.75;;
19808;SDS011;48538;32.784;-96.802;2023-05-29T09:37:26;22.15;;;12.25;;
19808;SDS011;48538;32.784;-96.802;2023-05-29T09:39:53;22.90;;;12.45;;
19808;SDS011;48538;32.784;-96.802;2023-05-29T09:42:19;21.48;;;13.32;;
19808;SDS011;48538;32.784;-96.802;2023-05-29T09:44:49;22.50;;;13.73;;
19808;SDS011;48538;32.784;-96.802;2023-05-29T09:47:19;19.10;;;12.02;;
19808;SDS011;48538;32.784;-96.802;2023-05-29T09:49:47;23.50;;;13.07;;
19808;SDS011;48538;32.784;-96.802;2023-05-29T09:52:14;24.58;;;13.43;;
19808;SDS011;48538;32.784;-96.802;2023-05-29T09:54:43;24.23;;;13.13;;
19808;SDS011;48538;32.784;-96.802;2023-05-29T09:57:13;23.45;;;12.32;;
19808;SDS011;48538;32.784;-96.802;2023-05-29T09:59:43;24.05;;;13.73;;
19808;SDS011;48538;32.784;-96.802;2023-05-29T10:02:18;21.55;;;12.98;;
19808;SDS011;48538;32.784;-96.802;2023-05-29T10:04:45;26.63;;;13.20;;
19808;SDS011;48538;32.784;-96.802;2023-05-29T10:09:57;21.38;;;13.07;;
19808;SDS011;48538;32.784;-96.802;2023-05-29T10:12:27;22.13;;;13.68;;
19808;SDS011;48538;32.784;-96.802;2023-05-29T10:14:56;21.08;;;13.60;;
19808;SDS011;48538;32.784;-96.802;2023-05-29T10:17:25;25.90;;;13.18;;
19808;SDS011;48538;32.784;-96.802;2023-05-29T10:19:57;20.73;;;13.00;;
19808;SDS011;48538;32.784;-96.802;2023-05-29T10:22:29;25.58;;;13.57;;
19808;SDS011;48538;32.784;-96.802;2023-05-29T10:24:57;18.35;;;12.60;;
19808;SDS011;48538;32.784;-96.802;2023-05-29T10:27:25;20.58;;;12.88;;
19808;SDS011;48538;32.784;-96.802;2023-05-29T10:30:15;22.45;;;13.45;;
19808;SDS011;48538;32.784;-96.802;2023-05-29T10:32:58;22.75;;;12.85;;
19808;SDS011;48538;32.784;-96.802;2023-05-29T10:35:36;21.67;;;13.45;;
19808;SDS011;48538;32.784;-96.802;2023-05-29T10:38:14;23.35;;;13.15;;
19808;SDS011;48538;32.784;-96.802;2023-05-29T10:40:43;20.27;;;13.25;;
19808;SDS011;48538;32.784;-96.802;2023-05-29T10:46:02;20.90;;;12.18;;
19808;SDS011;48538;32.784;-96.802;2023-05-29T10:48:37;19.83;;;12.98;;
19808;SDS011;48538;32.784;-96.802;2023-05-29T10:51:06;20.20;;;12.82;;
19808;SDS011;48538;32.784;-96.802;2023-05-29T10:53:33;19.15;;;12.60;;
19808;SDS011;48538;32.784;-96.802;2023-05-29T10:56:07;21.45;;;12.55;;
19808;SDS011;48538;32.784;-96.802;2023-05-29T10:58:36;20.55;;;12.95;;
19808;SDS011;48538;32.784;-96.802;2023-05-29T11:01:02;20.67;;;12.50;;
19808;SDS011;48538;32.784;-96.802;2023-05-29T11:03:32;18.83;;;12.65;;
19808;SDS011;48538;32.784;-96.802;2023-05-29T11:06:00;23.33;;;13.00;;
19808;SDS011;48538;32.784;-96.802;2023-05-29T11:08:46;19.88;;;12.65;;
19808;SDS011;48538;32.784;-96.802;2023-05-29T11:11:13;22.23;;;13.02;;
19808;SDS011;48538;32.784;-96.802;2023-05-29T11:13:41;21.95;;;13.15;;
19808;SDS011;48538;32.784;-96.802;2023-05-29T11:16:37;22.80;;;13.15;;
19808;SDS011;48538;32.784;-96.802;2023-05-29T11:19:04;21.25;;;12.43;;
19808;SDS011;48538;32.784;-96.802;2023-05-29T11:24:22;23.38;;;13.65;;
19808;SDS011;48538;32.784;-96.802;2023-05-29T11:26:50;20.75;;;12.25;;
19808;SDS011;48538;32.784;-96.802;2023-05-29T11:29:24;22.40;;;12.80;;
19808;SDS011;48538;32.784;-96.802;2023-05-29T11:32:06;22.15;;;13.50;;
19808;SDS011;48538;32.784;-96.802;2023-05-29T11:34:38;25.55;;;13.65;;
19808;SDS011;48538;32.784;-96.802;2023-05-29T11:37:06;23.08;;;12.88;;
19808;SDS011;48538;32.784;-96.802;2023-05-29T11:39:36;23.52;;;12.85;;
19808;SDS011;48538;32.784;-96.802;2023-05-29T11:42:03;20.55;;;13.60;;
19808;SDS011;48538;32.784;-96.802;2023-05-29T11:44:30;20.40;;;12.98;;
19808;SDS011;48538;32.784;-96.802;2023-05-29T11:47:00;21.05;;;13.15;;
19808;SDS011;48538;32.784;-96.802;2023-05-29T11:49:31;21.25;;;12.00;;
19808;SDS011;48538;32.784;-96.802;2023-05-29T11:52:14;19.13;;;12.80;;
19808;SDS011;48538;32.784;-96.802;2023-05-29T11:54:42;19.10;;;13.43;;
19808;SDS011;48538;32.784;-96.802;2023-05-29T11:57:21;19.80;;;12.70;;
19808;SDS011;48538;32.784;-96.802;2023-05-29T11:59:51;19.55;;;12.65;;
19808;SDS011;48538;32.784;-96.802;2023-05-29T12:02:23;20.75;;;13.05;;
19808;SDS011;48538;32.784;-96.802;2023-05-29T12:05:00;19.17;;;13.05;;
19808;SDS011;48538;32.784;-96.802;2023-05-29T12:07:31;20.48;;;12.85;;
19808;SDS011;48538;32.784;-96.802;2023-05-29T12:10:08;19.63;;;12.95;;
19808;SDS011;48538;32.784;-96.802;2023-05-29T12:12:38;23.27;;;12.90;;
19808;SDS011;48538;32.784;-96.802;2023-05-29T12:15:05;21.50;;;12.32;;
19808;SDS011;48538;32.784;-96.802;2023-05-29T12:17:34;20.23;;;12.27;;
19808;SDS011;48538;32.784;-96.802;2023-05-29T12:20:13;20.45;;;12.48;;
19808;SDS011;48538;32.784;-96.802;2023-05-29T12:22:40;18.13;;;12.07;;
19808;SDS011;48538;32.784;-96.802;2023-05-29T12:25:11;20.98;;;12.35;;
19808;SDS011;48538;32.784;-96.802;2023-05-29T12:27:56;19.45;;;12.43;;
19808;SDS011;48538;32.784;-96.802;2023-05-29T12:30:23;18.20;;;11.68;;
19808;SDS011;48538;32.784;-96.802;2023-05-29T12:32:53;20.55;;;11.63;;
19808;SDS011;48538;32.784;-96.802;2023-05-29T12:35:23;17.67;;;12.25;;
19808;SDS011;48538;32.784;-96.802;2023-05-29T12:37:58;20.83;;;11.88;;
19808;SDS011;48538;32.784;-96.802;2023-05-29T12:40:33;19.52;;;12.10;;
19808;SDS011;48538;32.784;-96.802;2023-05-29T12:43:03;20.00;;;12.38;;
19808;SDS011;48538;32.784;-96.802;2023-05-29T12:45:32;19.92;;;11.95;;
19808;SDS011;48538;32.784;-96.802;2023-05-29T12:47:59;19.33;;;11.80;;
19808;SDS011;48538;32.784;-96.802;2023-05-29T12:50:28;21.75;;;11.65;;
19808;SDS011;48538;32.784;-96.802;2023-05-29T12:53:02;20.38;;;12.25;;
19808;SDS011;48538;32.784;-96.802;2023-05-29T12:55:33;21.38;;;11.35;;
19808;SDS011;48538;32.784;-96.802;2023-05-29T12:58:10;18.17;;;11.65;;
19808;SDS011;48538;32.784;-96.802;2023-05-29T13:00:41;17.00;;;11.38;;
19808;SDS011;48538;32.784;-96.802;2023-05-29T13:03:09;17.42;;;11.40;;
19808;SDS011;48538;32.784;-96.802;2023-05-29T13:05:39;17.55;;;11.13;;
19808;SDS011;48538;32.784;-96.802;2023-05-29T13:08:06;17.80;;;10.98;;
19808;SDS011;48538;32.784;-96.802;2023-05-29T13:10:33;16.77;;;11.02;;
19808;SDS011;48538;32.784;-96.802;2023-05-29T13:13:00;16.50;;;10.88;;
19808;SDS011;48538;32.784;-96.802;2023-05-29T13:15:26;16.00;;;10.75;;
19808;SDS011;48538;32.784;-96.802;2023-05-29T13:17:52;17.73;;;10.65;;
19808;SDS011;48538;32.784;-96.802;2023-05-29T13:20:19;22.70;;;11.30;;
19808;SDS011;48538;32.784;-96.802;2023-05-29T13:22:46;17.67;;;10.80;;
19808;SDS011;48538;32.784;-96.802;2023-05-29T13:25:13;17.67;;;11.35;;
19808;SDS011;48538;32.784;-96.802;2023-05-29T13:27:42;20.05;;;11.57;;
19808;SDS011;48538;32.784;-96.802;2023-05-29T13:30:10;16.35;;;10.30;;
19808;SDS011;48538;32.784;-96.802;2023-05-29T13:32:38;15.02;;;11.60;;
19808;SDS011;48538;32.784;-96.802;2023-05-29T13:35:04;16.60;;;10.48;;
19808;SDS011;48538;32.784;-96.802;2023-05-29T13:37:31;19.92;;;11.55;;
19808;SDS011;48538;32.784;-96.802;2023-05-29T13:39:57;19.48;;;11.05;;
19808;SDS011;48538;32.784;-96.802;2023-05-29T13:42:24;14.95;;;10.50;;
19808;SDS011;48538;32.784;-96.802;2023-05-29T13:44:50;21.80;;;11.57;;
19808;SDS011;48538;32.784;-96.802;2023-05-29T13:47:19;20.20;;;11.80;;
19808;SDS011;48538;32.784;-96.802;2023-05-29T13:49:45;18.05;;;11.77;;
19808;SDS011;48538;32.784;-96.802;2023-05-29T13:52:11;20.75;;;12.27;;
19808;SDS011;48538;32.784;-96.802;2023-05-29T13:54:38;17.27;;;11.65;;
19808;SDS011;48538;32.784;-96.802;2023-05-29T13:57:05;22.63;;;13.32;;
19808;SDS011;48538;32.784;-96.802;2023-05-29T13:59:32;22.10;;;13.70;;
19808;SDS011;48538;32.784;-96.802;2023-05-29T14:02:00;23.48;;;12.68;;
19808;SDS011;48538;32.784;-96.802;2023-05-29T14:04:29;22.52;;;12.73;;
19808;SDS011;48538;32.784;-96.802;2023-05-29T14:06:56;21.75;;;13.60;;
19808;SDS011;48538;32.784;-96.802;2023-05-29T14:09:22;23.65;;;13.07;;
19808;SDS011;48538;32.784;-96.802;2023-05-29T14:11:55;23.20;;;12.93;;
19808;SDS011;48538;32.784;-96.802;2023-05-29T14:14:25;25.00;;;14.00;;
19808;SDS011;48538;32.784;-96.802;2023-05-29T14:16:51;23.50;;;12.98;;
19808;SDS011;48538;32.784;-96.802;2023-05-29T14:19:19;23.60;;;12.63;;